createdAt,value
2022-10-25T00:01:45.792Z,11.24
2022-10-25T00:04:13.471Z,11.25
2022-10-25T00:06:42.880Z,11.27
2022-10-25T00:09:09.905Z,11.30
2022-10-25T00:11:43.510Z,11.20
2022-10-25T00:14:16.691Z,11.34
2022-10-25T00:16:45.376Z,11.40
2022-10-25T00:19:14.318Z,11.43
2022-10-25T00:21:41.230Z,11.49
2022-10-25T00:24:11.867Z,11.49
2022-10-25T00:26:41.235Z,11.52
2022-10-25T00:29:09.634Z,11.55
2022-10-25T00:31:39.079Z,11.56
2022-10-25T00:34:08.047Z,11.61
2022-10-25T00:36:35.114Z,11.64
2022-10-25T00:39:04.183Z,11.66
2022-10-25T00:41:36.546Z,11.67
2022-10-25T00:44:42.701Z,11.65
2022-10-25T00:47:21.573Z,11.64
2022-10-25T00:50:01.472Z,11.63
2022-10-25T00:52:35.133Z,11.66
2022-10-25T00:55:05.504Z,11.68
2022-10-25T00:57:39.636Z,11.68
2022-10-25T01:00:07.402Z,11.69
2022-10-25T01:02:38.959Z,11.56
2022-10-25T01:05:08.708Z,11.70
2022-10-25T01:07:39.106Z,11.66
2022-10-25T01:10:08.194Z,11.62
2022-10-25T01:12:37.624Z,11.69
2022-10-25T01:15:07.246Z,11.69
2022-10-25T01:17:56.078Z,11.70
2022-10-25T01:20:58.119Z,11.71
2022-10-25T01:23:34.090Z,11.67
2022-10-25T01:26:21.940Z,11.73
2022-10-25T01:28:48.403Z,11.74
2022-10-25T01:31:27.580Z,11.75
2022-10-25T01:34:10.415Z,11.77
2022-10-25T01:36:39.006Z,11.80
2022-10-25T01:39:27.559Z,11.81
2022-10-25T01:42:09.183Z,11.82
2022-10-25T01:44:50.732Z,11.85
2022-10-25T01:47:25.067Z,11.84
2022-10-25T01:50:02.683Z,11.87
2022-10-25T01:52:33.779Z,11.82
2022-10-25T01:55:06.653Z,11.85
2022-10-25T01:57:47.566Z,11.86
2022-10-25T02:00:18.009Z,11.85
2022-10-25T02:02:47.854Z,11.89
2022-10-25T02:05:43.237Z,11.89
2022-10-25T02:08:18.517Z,11.86
2022-10-25T02:10:54.190Z,11.87
2022-10-25T02:13:58.115Z,11.86
2022-10-25T02:16:36.710Z,11.86
2022-10-25T02:19:06.812Z,11.85
2022-10-25T02:21:36.780Z,11.88
2022-10-25T02:24:21.124Z,11.81
2022-10-25T02:26:51.601Z,11.86
2022-10-25T02:29:20.127Z,11.86
2022-10-25T02:31:49.368Z,11.85
2022-10-25T02:34:16.070Z,11.81
2022-10-25T02:36:42.628Z,11.77
2022-10-25T02:39:11.968Z,11.83
2022-10-25T02:41:38.507Z,11.87
2022-10-25T02:44:07.478Z,11.91
2022-10-25T02:46:36.557Z,11.89
2022-10-25T02:49:03.509Z,11.87
2022-10-25T02:51:32.474Z,11.89
2022-10-25T02:53:59.096Z,11.89
2022-10-25T02:56:25.752Z,11.91
2022-10-25T02:58:57.809Z,11.86
2022-10-25T03:01:27.703Z,11.87
2022-10-25T03:03:59.233Z,11.92
2022-10-25T03:06:29.281Z,11.91
2022-10-25T03:08:58.841Z,11.90
2022-10-25T03:11:30.448Z,11.92
2022-10-25T03:13:59.475Z,11.93
2022-10-25T03:16:26.022Z,11.92
2022-10-25T03:18:52.530Z,11.93
2022-10-25T03:21:21.828Z,11.93
2022-10-25T03:23:51.184Z,11.88
2022-10-25T03:26:17.742Z,11.90
2022-10-25T03:28:46.525Z,11.95
2022-10-25T03:31:15.759Z,11.97
2022-10-25T03:33:42.721Z,11.86
2022-10-25T03:36:11.772Z,11.87
2022-10-25T03:38:38.345Z,11.93
2022-10-25T03:41:09.706Z,11.93
2022-10-25T03:43:39.099Z,11.92
2022-10-25T03:46:05.906Z,11.83
2022-10-25T03:48:34.700Z,11.92
2022-10-25T03:51:01.387Z,11.89
2022-10-25T03:53:30.144Z,11.93
2022-10-25T03:55:59.444Z,11.94
2022-10-25T03:58:25.964Z,11.92
2022-10-25T04:00:55.055Z,11.96
2022-10-25T04:03:24.230Z,11.95
2022-10-25T04:05:53.035Z,11.97
2022-10-25T04:08:19.581Z,11.97
2022-10-25T04:10:47.077Z,11.99
2022-10-25T04:13:16.057Z,11.95
2022-10-25T04:15:42.600Z,11.87
2022-10-25T04:18:09.134Z,11.87
2022-10-25T04:20:37.972Z,11.94
2022-10-25T04:23:04.487Z,11.89
2022-10-25T04:25:31.090Z,11.95
2022-10-25T04:28:00.960Z,11.89
2022-10-25T04:30:33.891Z,11.98
2022-10-25T04:33:05.625Z,11.98
2022-10-25T04:35:32.279Z,11.92
2022-10-25T04:37:59.237Z,11.97
2022-10-25T04:40:28.613Z,11.94
2022-10-25T04:42:55.246Z,11.93
2022-10-25T04:45:21.833Z,11.89
2022-10-25T04:47:48.805Z,11.93
2022-10-25T04:50:18.017Z,11.93
2022-10-25T04:52:47.220Z,11.94
2022-10-25T04:55:18.941Z,11.90
2022-10-25T04:57:45.453Z,11.86
2022-10-25T05:00:12.435Z,11.81
2022-10-25T05:02:39.047Z,11.92
2022-10-25T05:05:06.275Z,11.89
2022-10-25T05:07:33.205Z,11.89
2022-10-25T05:10:01.928Z,11.89
2022-10-25T05:12:28.539Z,11.92
2022-10-25T05:14:59.737Z,11.83
2022-10-25T05:17:26.347Z,11.89
2022-10-25T05:19:53.495Z,11.94
2022-10-25T05:22:22.241Z,11.94
2022-10-25T05:24:48.793Z,11.91
2022-10-25T05:27:18.727Z,11.94
2022-10-25T05:29:48.133Z,11.87
2022-10-25T05:32:16.991Z,12.16
2022-10-25T05:34:43.526Z,12.01
2022-10-25T05:37:10.086Z,12.03
2022-10-25T05:39:39.303Z,11.92
2022-10-25T05:42:06.472Z,11.96
2022-10-25T05:44:33.382Z,11.98
2022-10-25T05:46:59.945Z,11.95
2022-10-25T05:49:29.472Z,11.94
2022-10-25T05:51:56.018Z,11.96
2022-10-25T05:54:23.526Z,11.96
2022-10-25T05:56:52.542Z,11.93
2022-10-25T05:59:19.079Z,11.92
2022-10-25T06:01:47.096Z,11.91
2022-10-25T06:04:17.441Z,11.94
2022-10-25T06:06:46.827Z,11.94
2022-10-25T06:09:14.031Z,11.95
2022-10-25T06:11:40.763Z,11.94
2022-10-25T06:14:07.444Z,11.95
2022-10-25T06:16:34.014Z,11.96
2022-10-25T06:19:02.883Z,11.99
2022-10-25T06:21:29.987Z,11.91
2022-10-25T06:23:59.723Z,11.95
2022-10-25T06:26:31.091Z,11.98
2022-10-25T06:29:07.076Z,12.00
2022-10-25T06:31:36.234Z,12.03
2022-10-25T06:34:05.910Z,12.02
2022-10-25T06:36:32.554Z,11.98
2022-10-25T06:39:05.577Z,11.99
2022-10-25T06:41:36.892Z,12.05
2022-10-25T06:44:06.539Z,12.03
2022-10-25T06:46:57.841Z,12.07
2022-10-25T06:49:25.772Z,12.05
2022-10-25T06:51:57.443Z,12.08
2022-10-25T06:54:27.429Z,12.06
2022-10-25T06:56:54.053Z,12.01
2022-10-25T06:59:21.027Z,12.09
2022-10-25T07:01:50.486Z,12.16
2022-10-25T07:04:17.237Z,12.17
2022-10-25T07:06:43.799Z,12.09
2022-10-25T07:09:12.467Z,12.20
2022-10-25T07:11:43.016Z,12.19
2022-10-25T07:14:12.099Z,12.27
2022-10-25T07:16:41.472Z,12.29
2022-10-25T07:19:08.563Z,12.32
2022-10-25T07:21:37.238Z,12.32
2022-10-25T07:24:04.079Z,12.33
2022-10-25T07:26:34.530Z,12.36
2022-10-25T07:29:02.340Z,12.36
2022-10-25T07:31:34.480Z,12.38
2022-10-25T07:34:04.920Z,12.42
2022-10-25T07:36:31.713Z,12.41
2022-10-25T07:38:58.473Z,12.46
2022-10-25T07:41:28.719Z,12.56
2022-10-25T07:43:55.585Z,12.56
2022-10-25T07:46:27.005Z,12.61
2022-10-25T07:48:53.531Z,12.55
2022-10-25T07:51:20.673Z,12.69
2022-10-25T07:53:47.568Z,12.70
2022-10-25T07:56:20.435Z,12.72
2022-10-25T07:58:52.487Z,12.77
2022-10-25T08:01:24.741Z,12.81
2022-10-25T08:03:57.059Z,12.91
2022-10-25T08:06:26.553Z,12.98
2022-10-25T08:08:55.542Z,13.00
2022-10-25T08:11:22.552Z,12.98
2022-10-25T08:13:50.737Z,12.97
2022-10-25T08:16:18.089Z,13.03
2022-10-25T08:18:47.045Z,13.07
2022-10-25T08:21:14.978Z,13.04
2022-10-25T08:23:41.723Z,13.14
2022-10-25T08:26:10.850Z,13.16
2022-10-25T08:28:37.377Z,13.17
2022-10-25T08:31:04.606Z,13.22
2022-10-25T08:33:33.235Z,13.25
2022-10-25T08:36:03.232Z,13.24
2022-10-25T08:38:30.339Z,13.29
2022-10-25T08:41:06.816Z,13.25
2022-10-25T08:43:52.234Z,13.29
2022-10-25T08:46:34.922Z,13.27
2022-10-25T08:49:19.274Z,13.30
2022-10-25T08:51:50.771Z,13.35
2022-10-25T08:54:26.736Z,13.37
2022-10-25T08:57:17.856Z,13.36
2022-10-25T08:59:51.143Z,13.38
2022-10-25T09:02:23.910Z,13.48
2022-10-25T09:04:52.839Z,13.50
2022-10-25T09:07:37.395Z,13.57
2022-10-25T09:10:22.248Z,13.59
2022-10-25T09:13:03.269Z,13.67
2022-10-25T09:16:01.243Z,13.64
2022-10-25T09:18:45.997Z,13.65
2022-10-25T09:21:27.795Z,13.65
2022-10-25T09:24:29.257Z,13.69
2022-10-25T09:27:04.569Z,13.74
2022-10-25T09:29:36.528Z,13.73
2022-10-25T09:32:13.221Z,13.87
2022-10-25T09:34:43.047Z,13.86
2022-10-25T09:37:23.630Z,13.84
2022-10-25T09:39:55.093Z,13.83
2022-10-25T09:42:38.518Z,13.81
2022-10-25T09:45:16.987Z,13.78
2022-10-25T09:47:54.659Z,13.84
2022-10-25T09:50:29.088Z,13.88
2022-10-25T09:53:12.945Z,13.94
2022-10-25T09:55:54.598Z,13.85
2022-10-25T09:58:27.120Z,13.77
2022-10-25T10:00:58.881Z,13.83
2022-10-25T10:03:31.491Z,13.91
2022-10-25T10:06:06.866Z,13.87
2022-10-25T10:08:41.769Z,13.89
2022-10-25T10:11:18.044Z,13.95
2022-10-25T10:13:52.354Z,13.89
2022-10-25T10:16:38.530Z,13.75
2022-10-25T10:19:24.893Z,13.92
2022-10-25T10:21:53.965Z,14.03
2022-10-25T10:24:44.015Z,14.07
2022-10-25T10:27:24.301Z,14.15
2022-10-25T10:29:55.205Z,14.25
2022-10-25T10:32:32.034Z,14.29
2022-10-25T10:35:02.518Z,14.38
2022-10-25T10:37:33.628Z,14.38
2022-10-25T10:40:01.240Z,14.41
2022-10-25T10:42:36.357Z,14.42
2022-10-25T10:45:08.448Z,14.43
2022-10-25T10:47:41.831Z,14.74
2022-10-25T10:50:32.919Z,14.91
2022-10-25T10:53:01.979Z,14.97
2022-10-25T10:55:30.879Z,14.93
2022-10-25T10:58:06.216Z,14.94
2022-10-25T11:00:36.811Z,14.86
2022-10-25T11:03:03.493Z,14.77
2022-10-25T11:05:35.576Z,14.81
2022-10-25T11:08:22.318Z,14.72
2022-10-25T11:10:51.197Z,14.88
2022-10-25T11:13:20.747Z,15.11
2022-10-25T11:16:21.988Z,14.87
2022-10-25T11:19:14.936Z,14.92
2022-10-25T11:22:11.987Z,15.01
2022-10-25T11:24:56.863Z,15.20
2022-10-25T11:27:50.359Z,15.28
2022-10-25T11:30:19.436Z,15.24
2022-10-25T11:32:50.451Z,15.26
2022-10-25T11:35:46.979Z,15.36
2022-10-25T11:38:55.596Z,15.37
2022-10-25T11:41:29.044Z,15.70
2022-10-25T11:44:20.280Z,15.84
2022-10-25T11:47:08.885Z,15.82
2022-10-25T11:49:46.513Z,15.77
2022-10-25T11:52:16.016Z,15.72
2022-10-25T11:54:52.596Z,15.64
2022-10-25T11:57:34.108Z,15.66
2022-10-25T12:00:20.104Z,15.68
2022-10-25T12:02:52.625Z,15.41
2022-10-25T12:05:35.385Z,15.63
2022-10-25T12:08:10.292Z,15.66
2022-10-25T12:10:43.294Z,15.65
2022-10-25T12:13:15.912Z,15.52
2022-10-25T12:15:48.708Z,15.56
2022-10-25T12:18:40.791Z,15.49
2022-10-25T12:21:10.472Z,15.27
2022-10-25T12:23:45.183Z,15.15
2022-10-25T12:26:36.200Z,15.26
2022-10-25T12:29:12.436Z,15.30
2022-10-25T12:31:43.708Z,15.11
2022-10-25T12:34:16.299Z,15.13
2022-10-25T12:36:53.013Z,15.15
2022-10-25T12:39:28.560Z,15.14
2022-10-25T12:42:04.521Z,15.03
2022-10-25T12:44:49.503Z,14.96
2022-10-25T12:47:45.370Z,14.97
2022-10-25T12:50:24.201Z,15.03
2022-10-25T12:53:00.059Z,14.92
2022-10-25T12:55:54.080Z,14.95
2022-10-25T12:58:29.625Z,14.90
2022-10-25T13:01:04.609Z,14.87
2022-10-25T13:03:58.876Z,14.89
2022-10-25T13:06:46.650Z,14.82
2022-10-25T13:09:22.167Z,14.83
2022-10-25T13:12:21.147Z,15.03
2022-10-25T13:14:50.779Z,15.14
2022-10-25T13:17:40.185Z,15.27
2022-10-25T13:22:50.425Z,15.13
2022-10-25T13:25:32.489Z,15.18
2022-10-25T13:28:11.322Z,15.17
2022-10-25T13:30:37.899Z,15.17
2022-10-25T13:33:16.398Z,15.17
2022-10-25T13:35:49.057Z,15.19
2022-10-25T13:38:33.276Z,15.16
2022-10-25T13:41:16.977Z,15.21
2022-10-25T13:44:03.316Z,15.15
2022-10-25T13:46:34.382Z,15.03
2022-10-25T13:49:05.311Z,15.00
2022-10-25T13:51:32.771Z,14.96
2022-10-25T13:54:05.966Z,14.94
2022-10-25T13:56:50.650Z,15.00
2022-10-25T13:59:57.537Z,15.12
2022-10-25T14:02:24.308Z,15.03
2022-10-25T14:04:53.488Z,15.04
2022-10-25T14:07:43.077Z,15.06
2022-10-25T14:10:21.364Z,15.05
2022-10-25T14:12:51.232Z,15.04
2022-10-25T14:15:52.436Z,14.98
2022-10-25T14:18:25.669Z,14.94
2022-10-25T14:21:14.797Z,15.03
2022-10-25T14:23:42.256Z,15.00
2022-10-25T14:26:14.828Z,14.97
2022-10-25T14:28:41.403Z,14.90
2022-10-25T14:31:15.019Z,14.84
2022-10-25T14:33:56.577Z,14.86
2022-10-25T14:36:28.200Z,14.88
2022-10-25T14:39:24.857Z,14.81
2022-10-25T14:42:02.734Z,14.81
2022-10-25T14:44:45.333Z,14.71
2022-10-25T14:47:30.775Z,14.74
2022-10-25T14:50:04.491Z,14.74
2022-10-25T14:52:31.587Z,14.69
2022-10-25T14:55:08.487Z,14.69
2022-10-25T14:57:36.290Z,14.57
2022-10-25T15:00:05.291Z,14.66
2022-10-25T15:02:39.986Z,14.63
2022-10-25T15:05:07.572Z,14.61
2022-10-25T15:07:39.926Z,14.50
2022-10-25T15:10:07.542Z,14.57
2022-10-25T15:12:35.040Z,14.51
2022-10-25T15:15:33.246Z,14.50
2022-10-25T15:18:02.698Z,14.46
2022-10-25T15:20:34.758Z,14.45
2022-10-25T15:23:06.838Z,14.45
2022-10-25T15:25:41.224Z,14.33
2022-10-25T15:28:20.086Z,14.34
2022-10-25T15:30:49.370Z,14.31
2022-10-25T15:33:21.754Z,14.27
2022-10-25T15:35:55.900Z,14.25
2022-10-25T15:38:41.986Z,14.20
2022-10-25T15:41:20.487Z,14.11
2022-10-25T15:43:51.842Z,14.04
2022-10-25T15:46:33.381Z,13.99
2022-10-25T15:49:06.750Z,13.91
2022-10-25T15:51:36.108Z,13.84
2022-10-25T15:54:02.710Z,13.73
2022-10-25T15:56:31.674Z,13.72
2022-10-25T15:59:02.525Z,13.67
2022-10-25T16:01:32.365Z,13.60
2022-10-25T16:03:59.122Z,13.55
2022-10-25T16:06:27.922Z,13.54
2022-10-25T16:08:54.479Z,13.49
2022-10-25T16:11:21.514Z,13.40
2022-10-25T16:13:51.657Z,13.34
2022-10-25T16:16:41.321Z,13.24
2022-10-25T16:19:21.968Z,13.22
2022-10-25T16:21:48.746Z,13.15
2022-10-25T16:24:15.457Z,13.03
2022-10-25T16:26:45.448Z,12.88
2022-10-25T16:29:21.578Z,12.88
2022-10-25T16:31:48.819Z,12.86
2022-10-25T16:34:17.371Z,12.76
2022-10-25T16:36:44.618Z,12.73
2022-10-25T16:39:11.547Z,12.72
2022-10-25T16:41:43.848Z,12.61
2022-10-25T16:44:20.409Z,12.62
2022-10-25T16:46:47.667Z,12.59
2022-10-25T16:49:14.324Z,12.53
2022-10-25T16:51:41.138Z,12.45
2022-10-25T16:54:11.751Z,12.40
2022-10-25T16:56:38.390Z,12.38
2022-10-25T16:59:07.693Z,12.19
2022-10-25T17:01:38.934Z,12.34
2022-10-25T17:04:07.922Z,12.40
2022-10-25T17:06:42.589Z,12.41
2022-10-25T17:09:12.510Z,12.43
2022-10-25T17:11:39.156Z,12.34
2022-10-25T17:14:06.201Z,12.40
2022-10-25T17:16:33.381Z,12.37
2022-10-25T17:19:03.322Z,12.30
2022-10-25T17:21:31.493Z,12.32
2022-10-25T17:23:58.137Z,12.27
2022-10-25T17:26:26.928Z,12.27
2022-10-25T17:28:53.463Z,12.29
2022-10-25T17:31:20.093Z,12.27
2022-10-25T17:33:49.086Z,12.28
2022-10-25T17:36:21.151Z,12.30
2022-10-25T17:38:47.772Z,12.25
2022-10-25T17:41:16.412Z,12.27
2022-10-25T17:43:45.366Z,12.26
2022-10-25T17:46:23.497Z,12.24
2022-10-25T17:49:03.052Z,12.24
2022-10-25T17:51:30.830Z,12.26
2022-10-25T17:54:00.130Z,12.21
2022-10-25T17:56:27.871Z,12.25
2022-10-25T17:58:55.386Z,12.26
2022-10-25T18:01:25.484Z,12.28
2022-10-25T18:03:55.373Z,12.24
2022-10-25T18:06:24.041Z,12.05
2022-10-25T18:08:55.781Z,11.93
2022-10-25T18:11:26.905Z,12.02
2022-10-25T18:13:57.947Z,12.11
2022-10-25T18:16:31.059Z,12.18
2022-10-25T18:19:02.738Z,12.05
2022-10-25T18:21:30.111Z,12.16
2022-10-25T18:24:01.351Z,12.17
2022-10-25T18:26:31.031Z,12.19
2022-10-25T18:28:58.864Z,12.16
2022-10-25T18:31:27.296Z,12.09
2022-10-25T18:33:59.236Z,12.13
2022-10-25T18:36:27.579Z,12.14
2022-10-25T18:38:54.767Z,12.08
2022-10-25T18:41:27.173Z,12.15
2022-10-25T18:43:59.760Z,12.14
2022-10-25T18:46:30.864Z,12.08
2022-10-25T18:48:57.817Z,12.07
2022-10-25T18:51:29.008Z,12.05
2022-10-25T18:54:04.595Z,12.05
2022-10-25T18:56:31.977Z,12.04
2022-10-25T18:59:01.113Z,12.06
2022-10-25T19:01:32.256Z,12.09
2022-10-25T19:04:03.713Z,12.10
2022-10-25T19:06:31.796Z,12.11
2022-10-25T19:09:02.997Z,12.05
2022-10-25T19:11:30.005Z,12.04
2022-10-25T19:13:59.979Z,12.06
2022-10-25T19:16:26.750Z,12.05
2022-10-25T19:18:55.758Z,12.04
2022-10-25T19:21:22.410Z,12.03
2022-10-25T19:23:49.150Z,12.04
2022-10-25T19:26:20.500Z,12.08
2022-10-25T19:28:59.479Z,12.10
2022-10-25T19:31:27.695Z,12.11
2022-10-25T19:34:00.472Z,12.10
2022-10-25T19:36:29.338Z,12.10
2022-10-25T19:38:58.174Z,12.08
2022-10-25T19:41:28.521Z,12.05
2022-10-25T19:43:57.192Z,12.06
2022-10-25T19:46:26.291Z,12.05
2022-10-25T19:48:52.897Z,12.05
2022-10-25T19:51:23.024Z,12.04
2022-10-25T19:53:49.725Z,11.91
2022-10-25T19:56:23.393Z,11.91
2022-10-25T19:58:53.692Z,11.89
2022-10-25T20:01:27.440Z,11.82
2022-10-25T20:03:57.943Z,11.85
2022-10-25T20:06:27.408Z,11.89
2022-10-25T20:08:55.747Z,11.84
2022-10-25T20:11:26.363Z,11.80
2022-10-25T20:13:57.689Z,11.80
2022-10-25T20:16:28.038Z,11.75
2022-10-25T20:18:57.294Z,11.79
2022-10-25T20:21:26.300Z,11.72
2022-10-25T20:23:57.299Z,11.77
2022-10-25T20:26:28.483Z,11.77
2022-10-25T20:29:00.120Z,11.75
2022-10-25T20:31:29.397Z,11.77
2022-10-25T20:33:58.997Z,11.76
2022-10-25T20:36:28.408Z,11.80
2022-10-25T20:38:57.236Z,11.75
2022-10-25T20:41:27.147Z,11.66
2022-10-25T20:43:56.077Z,11.73
2022-10-25T20:46:24.182Z,11.79
2022-10-25T20:48:51.276Z,11.81
2022-10-25T20:51:18.623Z,11.79
2022-10-25T20:53:49.964Z,11.84
2022-10-25T20:56:18.038Z,11.89
2022-10-25T20:58:45.193Z,11.92
2022-10-25T21:01:11.846Z,11.92
2022-10-25T21:03:43.101Z,11.94
2022-10-25T21:06:14.450Z,11.95
2022-10-25T21:08:41.243Z,11.94
2022-10-25T21:11:12.321Z,11.99
2022-10-25T21:13:41.875Z,11.99
2022-10-25T21:16:11.126Z,11.98
2022-10-25T21:18:38.053Z,11.92
2022-10-25T21:21:08.520Z,11.89
2022-10-25T21:23:35.487Z,11.94
2022-10-25T21:26:06.693Z,11.96
2022-10-25T21:28:40.212Z,11.99
2022-10-25T21:31:11.473Z,11.97
2022-10-25T21:33:41.917Z,12.00
2022-10-25T21:36:15.259Z,12.07
2022-10-25T21:38:44.339Z,12.04
2022-10-25T21:41:14.214Z,12.05
2022-10-25T21:43:47.986Z,12.06
2022-10-25T21:46:16.417Z,12.05
2022-10-25T21:48:50.956Z,12.05
2022-10-25T21:51:21.222Z,12.06
2022-10-25T21:53:48.270Z,12.05
2022-10-25T21:56:17.310Z,12.07
2022-10-25T21:58:47.996Z,12.06
2022-10-25T22:01:22.858Z,12.09
2022-10-25T22:03:51.930Z,12.06
2022-10-25T22:06:20.874Z,12.02
2022-10-25T22:08:50.336Z,12.04
2022-10-25T22:11:22.744Z,12.08
2022-10-25T22:13:54.590Z,12.12
2022-10-25T22:16:24.457Z,12.07
2022-10-25T22:18:59.771Z,12.10
2022-10-25T22:21:28.287Z,12.11
2022-10-25T22:23:58.199Z,12.11
2022-10-25T22:26:25.340Z,12.13
2022-10-25T22:28:53.660Z,12.08
2022-10-25T22:31:23.947Z,12.08
2022-10-25T22:34:01.221Z,12.08
2022-10-25T22:36:35.252Z,12.01
2022-10-25T22:39:05.605Z,12.04
2022-10-25T22:41:32.916Z,12.02
2022-10-25T22:44:00.160Z,11.95
2022-10-25T22:46:34.949Z,12.07
2022-10-25T22:49:10.338Z,12.00
2022-10-25T22:51:39.390Z,12.03
2022-10-25T22:54:06.160Z,11.97
2022-10-25T22:56:33.272Z,11.88
2022-10-25T22:59:02.036Z,12.01
2022-10-25T23:01:33.636Z,12.00
2022-10-25T23:04:01.217Z,12.03
2022-10-25T23:06:32.559Z,12.02
2022-10-25T23:09:00.826Z,12.03
2022-10-25T23:11:29.504Z,12.00
2022-10-25T23:14:03.335Z,12.04
2022-10-25T23:16:29.957Z,11.93
2022-10-25T23:18:57.361Z,12.02
2022-10-25T23:21:30.222Z,11.96
2022-10-25T23:23:58.722Z,12.07
2022-10-25T23:26:26.189Z,12.09
2022-10-25T23:28:56.154Z,12.07
2022-10-25T23:31:26.599Z,12.14
2022-10-25T23:33:55.159Z,12.16
2022-10-25T23:36:24.008Z,12.12
2022-10-25T23:38:55.343Z,12.17
2022-10-25T23:41:23.061Z,12.12
2022-10-25T23:43:49.963Z,12.09
2022-10-25T23:46:19.030Z,12.05
2022-10-25T23:48:46.096Z,11.92
2022-10-25T23:51:18.034Z,11.98
2022-10-25T23:53:45.622Z,11.99
2022-10-25T23:56:13.628Z,11.92
2022-10-25T23:58:40.271Z,11.93
